VDMK weather

Mondulkiri Airport
Sen Monorom, Mondol Kiri, Cambodia

Public forecast

Using degrees Celsius for public forecast. Weather courtesy of forecast.io.

METAR (pilot weather report)

Closest report is Tan Son Nhat International Airport, 103.7 nm (192.0 km) SSW. Retrieved 2019/02/16 13:00 UTC (5 minutes ago):

VVTS 161300Z 15006KT 110V190 9999 FEW017 28/23 Q1012 NOSIG

TAF (pilot weather forecast)

Closest forecast is Tan Son Nhat International Airport, 103.7 nm (192.0 km) SSW. Retrieved 2019/02/16 12:37 UTC (28 minutes ago):

TAF VVTS 161100Z 1612/1718 17010KT 9999 FEW020